Time;durP1;ratioP1;P1;durP2;ratioP2;P2;SDS_P1;SDS_P2;PMS_P1;PMS_P2;Temp;Humidity;BMP_temperature;BMP_pressure;BME280_temperature;BME280_humidity;BME280_pressure;Samples;Min_cycle;Max_cycle;Signal;HPM_P1;HPM_P2
2023/05/01 00:02:06;;;;;;;;;;;15.60;54.20;;;;;;5051395;28;19939;-68
2023/05/01 00:04:32;;;;;;;;;;;15.60;53.90;;;;;;5048382;28;19921;-67
2023/05/01 00:06:58;;;;;;;;;;;15.60;53.90;;;;;;5046723;28;20284;-67
2023/05/01 00:09:25;;;;;;;;;;;15.60;53.90;;;;;;5048916;28;19921;-67
2023/05/01 00:11:51;;;;;;;;;;;15.60;53.90;;;;;;5049426;28;19920;-67
2023/05/01 00:14:16;;;;;;;;;;;15.60;53.90;;;;;;5049018;28;19920;-67
2023/05/01 00:16:42;;;;;;;;;;;15.60;53.90;;;;;;5047883;28;19921;-67
2023/05/01 00:19:07;;;;;;;;;;;15.60;53.90;;;;;;5048713;28;19931;-67
2023/05/01 00:21:33;;;;;;;;;;;15.60;53.90;;;;;;5047817;28;19925;-69
2023/05/01 00:23:59;;;;;;;;;;;15.60;53.90;;;;;;5050617;28;19974;-67
2023/05/01 00:26:29;;;;;;;;;;;15.50;53.90;;;;;;5044795;28;20439;-67
2023/05/01 00:28:54;;;;;;;;;;;15.60;53.90;;;;;;5049185;28;19920;-67
2023/05/01 00:31:20;;;;;;;;;;;15.50;53.80;;;;;;5048578;28;19932;-67
2023/05/01 00:33:45;;;;;;;;;;;15.60;53.90;;;;;;5047987;28;19928;-67
2023/05/01 00:36:11;;;;;;;;;;;15.50;53.80;;;;;;5050982;28;19967;-67
2023/05/01 00:38:36;;;;;;;;;;;15.50;53.80;;;;;;5048319;28;19925;-67
2023/05/01 00:41:02;;;;;;;;;;;15.50;53.70;;;;;;5047677;28;19928;-67
2023/05/01 00:43:27;;;;;;;;;;;15.50;54.50;;;;;;5045038;28;20420;-67
2023/05/01 00:45:53;;;;;;;;;;;15.50;53.70;;;;;;5049611;28;19925;-67
2023/05/01 00:48:18;;;;;;;;;;;15.50;53.70;;;;;;5047758;28;19976;-67
2023/05/01 00:50:44;;;;;;;;;;;15.50;53.70;;;;;;5049093;28;20054;-67
2023/05/01 00:53:10;;;;;;;;;;;15.50;53.70;;;;;;5047008;28;20402;-67
2023/05/01 00:55:37;;;;;;;;;;;15.50;53.70;;;;;;5048340;28;20346;-67
2023/05/01 00:58:03;;;;;;;;;;;15.50;53.70;;;;;;5046504;28;19928;-67
2023/05/01 01:00:29;;;;;;;;;;;15.50;53.70;;;;;;5047303;28;19929;-68
2023/05/01 01:02:54;;;;;;;;;;;15.50;53.70;;;;;;5048029;28;19925;-67
2023/05/01 01:05:22;;;;;;;;;;;15.50;53.70;;;;;;5046985;28;19932;-67
2023/05/01 01:07:50;;;;;;;;;;;15.50;53.70;;;;;;5048825;28;20406;-67
2023/05/01 01:10:26;;;;;;;;;;;15.50;53.70;;;;;;5065846;28;20412;-67
2023/05/01 01:12:56;;;;;;;;;;;15.40;53.60;;;;;;5049619;28;19920;-67
2023/05/01 01:15:29;;;;;;;;;;;15.50;53.70;;;;;;5046853;28;20372;-67
2023/05/01 01:20:45;;;;;;;;;;;15.40;53.60;;;;;;5096927;27;19916;-67
2023/05/01 01:28:51;;;;;;;;;;;15.40;53.60;;;;;;5099637;27;19924;-67
2023/05/01 01:31:19;;;;;;;;;;;15.40;53.50;;;;;;5094150;28;19928;-67
2023/05/01 01:33:49;;;;;;;;;;;15.40;53.60;;;;;;5095057;28;20384;-67
2023/05/01 01:36:17;;;;;;;;;;;15.40;53.60;;;;;;5099359;28;20325;-67
2023/05/01 01:38:45;;;;;;;;;;;15.40;53.60;;;;;;5093079;28;19924;-67
2023/05/01 01:41:13;;;;;;;;;;;15.40;53.60;;;;;;5097255;28;19920;-67
2023/05/01 01:43:40;;;;;;;;;;;15.40;53.60;;;;;;5096579;28;19924;-67
2023/05/01 01:46:06;;;;;;;;;;;15.40;53.60;;;;;;5092926;28;20471;-67
2023/05/01 01:48:34;;;;;;;;;;;15.40;54.30;;;;;;5095978;28;19924;-67
2023/05/01 01:51:04;;;;;;;;;;;15.40;53.60;;;;;;5098084;28;19963;-67
2023/05/01 01:53:31;;;;;;;;;;;15.30;53.50;;;;;;5093507;28;19920;-67
2023/05/01 01:55:58;;;;;;;;;;;15.30;53.50;;;;;;5092290;28;20311;-67
2023/05/01 01:58:25;;;;;;;;;;;15.40;53.60;;;;;;5131156;27;20006;-67
2023/05/01 02:00:52;;;;;;;;;;;15.30;53.50;;;;;;5097117;28;19920;-67
2023/05/01 02:03:18;;;;;;;;;;;15.40;53.60;;;;;;5092489;28;20300;-67
2023/05/01 02:05:45;;;;;;;;;;;15.40;53.60;;;;;;5095408;28;20364;-67
2023/05/01 02:08:12;;;;;;;;;;;15.30;53.50;;;;;;5094428;28;19967;-67
2023/05/01 02:10:39;;;;;;;;;;;15.30;53.50;;;;;;5095173;28;19931;-67
2023/05/01 02:13:04;;;;;;;;;;;15.30;53.50;;;;;;5094406;28;19954;-67
2023/05/01 02:15:31;;;;;;;;;;;15.30;53.50;;;;;;5127844;27;19927;-67
2023/05/01 02:17:57;;;;;;;;;;;15.30;53.50;;;;;;5097905;28;19924;-67
2023/05/01 02:20:22;;;;;;;;;;;15.30;53.50;;;;;;5093602;28;19927;-67
2023/05/01 02:22:50;;;;;;;;;;;15.30;53.50;;;;;;5092834;28;20307;-67
2023/05/01 02:25:16;;;;;;;;;;;15.30;53.50;;;;;;5097303;28;19943;-67
2023/05/01 02:27:46;;;;;;;;;;;15.30;53.70;;;;;;5111913;28;20492;-67
2023/05/01 02:30:11;;;;;;;;;;;15.20;53.50;;;;;;5113014;28;20414;-67
2023/05/01 02:32:37;;;;;;;;;;;15.20;53.50;;;;;;5097995;28;19924;-67
2023/05/01 02:35:02;;;;;;;;;;;15.20;53.40;;;;;;5113431;28;19927;-67
2023/05/01 02:37:29;;;;;;;;;;;15.20;53.40;;;;;;5095458;28;19927;-67
2023/05/01 02:39:55;;;;;;;;;;;15.20;53.40;;;;;;5083271;28;19927;-67
2023/05/01 02:42:21;;;;;;;;;;;15.20;53.40;;;;;;5104004;28;19924;-67
2023/05/01 02:44:50;;;;;;;;;;;15.20;53.40;;;;;;5082218;28;19928;-66
2023/05/01 02:47:18;;;;;;;;;;;15.20;53.40;;;;;;5082948;28;20386;-67
2023/05/01 02:49:45;;;;;;;;;;;15.20;53.40;;;;;;5082058;28;20299;-67
2023/05/01 02:52:11;;;;;;;;;;;15.20;53.40;;;;;;5102702;28;20003;-67
2023/05/01 02:54:37;;;;;;;;;;;15.20;53.40;;;;;;5117076;27;20382;-67
2023/05/01 02:57:04;;;;;;;;;;;15.20;53.40;;;;;;5082332;28;19920;-67
2023/05/01 02:59:30;;;;;;;;;;;15.10;53.30;;;;;;5100527;28;20139;-67
2023/05/01 03:01:55;;;;;;;;;;;15.10;53.30;;;;;;5100245;28;20100;-67
2023/05/01 03:04:21;;;;;;;;;;;15.20;53.30;;;;;;5099365;28;19943;-67
2023/05/01 03:06:46;;;;;;;;;;;15.10;53.30;;;;;;5099475;28;19932;-67
2023/05/01 03:09:12;;;;;;;;;;;15.10;53.30;;;;;;5082011;28;19924;-67
2023/05/01 03:11:38;;;;;;;;;;;15.10;53.30;;;;;;5080758;28;19920;-67
2023/05/01 03:14:03;;;;;;;;;;;15.10;53.30;;;;;;5081865;28;19920;-67
2023/05/01 03:16:29;;;;;;;;;;;15.10;53.30;;;;;;5100748;28;20019;-67
2023/05/01 03:18:54;;;;;;;;;;;15.10;53.30;;;;;;5100954;28;20379;-67
2023/05/01 03:21:20;;;;;;;;;;;15.10;53.30;;;;;;5118018;27;19924;-67
2023/05/01 03:23:46;;;;;;;;;;;15.10;53.40;;;;;;5082799;28;19924;-67
2023/05/01 03:26:11;;;;;;;;;;;15.00;53.40;;;;;;5084130;28;20450;-67
2023/05/01 03:28:37;;;;;;;;;;;15.10;53.40;;;;;;5087124;28;19928;-67
2023/05/01 03:31:02;;;;;;;;;;;15.10;53.40;;;;;;5115212;27;20448;-67
2023/05/01 03:33:28;;;;;;;;;;;15.00;53.40;;;;;;5082172;28;19919;-67
2023/05/01 03:36:10;;;;;;;;;;;15.00;54.20;;;;;;5100564;28;19923;-67
2023/05/01 03:38:35;;;;;;;;;;;15.00;53.40;;;;;;5088112;28;19920;-67
2023/05/01 03:41:01;;;;;;;;;;;15.00;53.50;;;;;;5113585;27;19969;-67
2023/05/01 03:43:26;;;;;;;;;;;15.00;53.50;;;;;;5091798;28;19947;-67
2023/05/01 03:45:52;;;;;;;;;;;15.00;53.50;;;;;;5099506;28;19923;-67
2023/05/01 03:48:18;;;;;;;;;;;15.00;53.50;;;;;;5099226;28;19924;-67
2023/05/01 03:50:43;;;;;;;;;;;15.00;54.20;;;;;;5082517;28;20569;-67
2023/05/01 03:53:09;;;;;;;;;;;14.90;53.50;;;;;;5081118;28;19927;-67
2023/05/01 03:55:34;;;;;;;;;;;14.90;53.50;;;;;;5097635;28;19920;-67
2023/05/01 03:58:00;;;;;;;;;;;15.00;53.60;;;;;;5081288;28;20376;-67
2023/05/01 04:00:25;;;;;;;;;;;14.90;53.50;;;;;;5117911;27;19990;-67
2023/05/01 04:02:51;;;;;;;;;;;14.90;53.50;;;;;;5099875;28;20300;-67
2023/05/01 04:05:17;;;;;;;;;;;14.90;53.50;;;;;;5099984;28;19928;-67
2023/05/01 04:07:43;;;;;;;;;;;14.90;53.50;;;;;;5098815;28;19924;-67
2023/05/01 04:10:09;;;;;;;;;;;14.90;53.60;;;;;;5099828;28;20290;-67
2023/05/01 04:12:34;;;;;;;;;;;14.90;53.50;;;;;;5090824;28;19920;-67
2023/05/01 04:15:00;;;;;;;;;;;14.90;53.50;;;;;;5081725;28;19928;-67
2023/05/01 04:17:26;;;;;;;;;;;14.90;53.60;;;;;;5079094;28;20451;-67
2023/05/01 04:19:53;;;;;;;;;;;14.90;53.50;;;;;;5082266;28;19920;-67
2023/05/01 04:22:19;;;;;;;;;;;14.80;53.50;;;;;;5080700;28;19927;-67
2023/05/01 04:24:44;;;;;;;;;;;14.80;53.50;;;;;;5082584;28;19920;-67
2023/05/01 04:27:10;;;;;;;;;;;14.80;53.50;;;;;;5081719;28;19930;-67
2023/05/01 04:29:35;;;;;;;;;;;14.80;53.50;;;;;;5079726;28;20014;-67
2023/05/01 04:32:01;;;;;;;;;;;14.80;53.50;;;;;;5067562;28;19927;-67
2023/05/01 04:34:28;;;;;;;;;;;14.80;53.50;;;;;;5103013;28;19928;-67
2023/05/01 04:36:56;;;;;;;;;;;14.80;53.60;;;;;;5099118;28;19927;-67
2023/05/01 04:39:21;;;;;;;;;;;14.80;53.60;;;;;;5081154;28;20434;-67
2023/05/01 04:41:47;;;;;;;;;;;14.70;53.50;;;;;;5099160;28;20031;-67
2023/05/01 04:44:13;;;;;;;;;;;14.80;53.60;;;;;;5081762;28;19934;-66
2023/05/01 04:46:38;;;;;;;;;;;14.70;53.60;;;;;;5101395;28;20023;-67
2023/05/01 04:49:04;;;;;;;;;;;14.70;53.50;;;;;;5079227;28;19920;-67
2023/05/01 04:51:29;;;;;;;;;;;14.70;53.60;;;;;;5084406;28;20002;-67
2023/05/01 04:53:55;;;;;;;;;;;14.70;53.60;;;;;;5081182;28;19920;-67
2023/05/01 04:56:20;;;;;;;;;;;14.70;53.60;;;;;;5116398;27;19920;-67
2023/05/01 04:58:46;;;;;;;;;;;14.70;53.60;;;;;;5083434;28;19974;-67
2023/05/01 05:01:12;;;;;;;;;;;14.70;53.60;;;;;;5097134;28;19977;-67
2023/05/01 05:03:37;;;;;;;;;;;14.70;53.60;;;;;;5100243;28;19924;-67
2023/05/01 05:06:03;;;;;;;;;;;14.70;53.60;;;;;;5113021;27;19927;-67
2023/05/01 05:08:28;;;;;;;;;;;14.70;53.60;;;;;;5084110;28;19938;-67
2023/05/01 05:10:55;;;;;;;;;;;14.70;53.60;;;;;;5080163;28;20015;-67
2023/05/01 05:13:21;;;;;;;;;;;14.70;53.60;;;;;;5113760;27;19924;-67
2023/05/01 05:15:46;;;;;;;;;;;14.70;53.60;;;;;;5113816;27;19931;-67
2023/05/01 05:18:12;;;;;;;;;;;14.70;53.60;;;;;;5098299;28;19919;-67
2023/05/01 05:20:38;;;;;;;;;;;14.60;53.60;;;;;;5102627;28;19920;-67
2023/05/01 05:23:04;;;;;;;;;;;14.70;53.60;;;;;;5077943;28;19931;-67
2023/05/01 05:25:29;;;;;;;;;;;14.70;53.60;;;;;;5082745;28;19920;-67
2023/05/01 05:27:55;;;;;;;;;;;14.60;53.50;;;;;;5080495;28;19923;-67
2023/05/01 05:30:20;;;;;;;;;;;14.70;53.60;;;;;;5096731;28;19924;-67
2023/05/01 05:32:46;;;;;;;;;;;14.70;53.70;;;;;;5096879;28;20398;-67
2023/05/01 05:35:12;;;;;;;;;;;14.60;53.50;;;;;;5081574;28;20007;-67
2023/05/01 05:37:37;;;;;;;;;;;14.70;53.60;;;;;;5116086;28;20407;-67
2023/05/01 05:40:03;;;;;;;;;;;14.70;53.60;;;;;;5078769;28;19920;-67
2023/05/01 05:42:28;;;;;;;;;;;14.70;53.60;;;;;;5083865;28;20410;-67
2023/05/01 05:44:54;;;;;;;;;;;14.70;53.70;;;;;;5096437;28;20287;-67
2023/05/01 05:47:19;;;;;;;;;;;14.60;53.60;;;;;;5078749;28;20307;-67
2023/05/01 05:49:45;;;;;;;;;;;14.60;53.60;;;;;;5083050;28;19924;-67
2023/05/01 05:52:11;;;;;;;;;;;14.60;53.60;;;;;;5081274;28;19920;-67
2023/05/01 05:54:36;;;;;;;;;;;14.60;53.60;;;;;;5113293;28;19939;-67
2023/05/01 05:57:03;;;;;;;;;;;14.60;53.60;;;;;;5097306;28;19920;-67
2023/05/01 05:59:28;;;;;;;;;;;14.60;53.60;;;;;;5113743;28;19955;-67
2023/05/01 06:01:54;;;;;;;;;;;14.70;53.70;;;;;;5081943;28;19969;-67
2023/05/01 06:04:19;;;;;;;;;;;14.70;53.70;;;;;;5115987;28;19920;-67
2023/05/01 06:06:45;;;;;;;;;;;14.60;53.60;;;;;;5077556;28;20166;-67
2023/05/01 06:09:11;;;;;;;;;;;14.70;53.70;;;;;;5080010;28;19920;-67
2023/05/01 06:11:37;;;;;;;;;;;14.70;53.70;;;;;;5097048;28;19948;-67
2023/05/01 06:14:02;;;;;;;;;;;14.60;53.60;;;;;;5080538;28;20288;-67
2023/05/01 06:16:28;;;;;;;;;;;14.60;53.60;;;;;;5084340;28;19920;-67
2023/05/01 06:18:53;;;;;;;;;;;14.70;53.60;;;;;;5084238;28;20276;-67
2023/05/01 06:21:19;;;;;;;;;;;14.70;53.60;;;;;;5118938;27;19920;-67
2023/05/01 06:23:45;;;;;;;;;;;14.70;53.50;;;;;;5083656;28;19970;-67
2023/05/01 06:26:11;;;;;;;;;;;14.70;53.50;;;;;;5083185;28;19973;-67
2023/05/01 06:28:37;;;;;;;;;;;14.70;53.50;;;;;;5102735;28;19935;-67
2023/05/01 06:31:02;;;;;;;;;;;14.70;53.50;;;;;;5100743;28;19920;-67
2023/05/01 06:33:28;;;;;;;;;;;14.70;53.50;;;;;;5082827;28;19927;-67
2023/05/01 06:35:53;;;;;;;;;;;14.70;53.50;;;;;;5090900;28;19928;-67
2023/05/01 06:38:19;;;;;;;;;;;14.70;53.50;;;;;;5118975;27;20354;-67
2023/05/01 06:40:47;;;;;;;;;;;14.70;53.40;;;;;;5102933;28;19920;-67
2023/05/01 06:43:13;;;;;;;;;;;14.70;53.40;;;;;;5084533;28;19927;-67
2023/05/01 06:45:40;;;;;;;;;;;14.70;53.30;;;;;;5083140;28;19924;-67
2023/05/01 06:48:05;;;;;;;;;;;14.80;53.40;;;;;;5083326;28;20444;-67
2023/05/01 06:50:34;;;;;;;;;;;14.80;53.30;;;;;;5082307;28;19967;-67
2023/05/01 06:53:01;;;;;;;;;;;14.80;53.20;;;;;;5103939;28;19967;-67
2023/05/01 06:55:29;;;;;;;;;;;14.80;53.20;;;;;;5103888;28;19976;-67
2023/05/01 06:57:56;;;;;;;;;;;14.80;53.20;;;;;;5099574;28;19919;-67
2023/05/01 07:00:21;;;;;;;;;;;14.80;53.10;;;;;;5101021;28;19966;-67
2023/05/01 07:02:47;;;;;;;;;;;14.80;53.00;;;;;;5081004;28;19963;-67
2023/05/01 07:05:12;;;;;;;;;;;14.90;53.00;;;;;;5082107;28;19931;-67
2023/05/01 07:07:38;;;;;;;;;;;14.90;53.00;;;;;;5081796;28;19925;-67
2023/05/01 07:10:03;;;;;;;;;;;14.90;52.90;;;;;;5118462;27;19920;-67
2023/05/01 07:12:32;;;;;;;;;;;14.90;52.90;;;;;;5072274;28;19928;-67
2023/05/01 07:14:57;;;;;;;;;;;14.90;52.90;;;;;;5081774;28;19920;-67
2023/05/01 07:17:23;;;;;;;;;;;14.90;52.80;;;;;;5082386;28;19972;-67
2023/05/01 07:19:49;;;;;;;;;;;14.90;52.80;;;;;;5100242;28;19972;-67
2023/05/01 07:22:14;;;;;;;;;;;15.00;52.90;;;;;;5089222;28;19988;-67
2023/05/01 07:24:40;;;;;;;;;;;14.90;52.70;;;;;;5101730;28;19920;-67
2023/05/01 07:27:06;;;;;;;;;;;14.90;52.70;;;;;;5082046;28;20014;-67
2023/05/01 07:29:32;;;;;;;;;;;15.00;52.80;;;;;;5080292;28;19927;-67
2023/05/01 07:31:57;;;;;;;;;;;15.00;52.70;;;;;;5100470;28;19920;-67
2023/05/01 07:34:23;;;;;;;;;;;15.00;52.70;;;;;;5082001;28;19927;-67
2023/05/01 07:36:48;;;;;;;;;;;15.00;52.70;;;;;;5101907;28;19920;-67
2023/05/01 07:39:14;;;;;;;;;;;14.90;52.60;;;;;;5100214;28;19928;-67
2023/05/01 07:41:39;;;;;;;;;;;14.90;52.60;;;;;;5115620;27;20334;-66
2023/05/01 07:44:05;;;;;;;;;;;14.90;52.60;;;;;;5099376;28;19924;-66
2023/05/01 07:46:31;;;;;;;;;;;15.00;52.60;;;;;;5080684;28;19927;-67
2023/05/01 07:48:56;;;;;;;;;;;15.00;52.60;;;;;;5082005;28;19963;-67
2023/05/01 07:51:22;;;;;;;;;;;14.90;52.50;;;;;;5101308;28;19924;-67
2023/05/01 07:53:48;;;;;;;;;;;15.00;52.60;;;;;;5082311;28;19924;-67
2023/05/01 07:56:13;;;;;;;;;;;14.90;52.50;;;;;;5084158;28;19942;-66
2023/05/01 07:58:41;;;;;;;;;;;15.00;52.60;;;;;;5082203;28;19926;-67
2023/05/01 08:01:08;;;;;;;;;;;15.00;52.50;;;;;;5080707;28;19927;-66
2023/05/01 08:03:33;;;;;;;;;;;14.90;52.50;;;;;;5098422;28;19999;-67
2023/05/01 08:05:59;;;;;;;;;;;15.00;52.50;;;;;;5079752;28;20010;-67
2023/05/01 08:08:24;;;;;;;;;;;14.90;52.40;;;;;;5081917;28;19931;-66
2023/05/01 08:10:50;;;;;;;;;;;15.00;52.50;;;;;;5116979;27;20295;-67
2023/05/01 08:13:16;;;;;;;;;;;15.00;52.40;;;;;;5081373;28;20018;-67
2023/05/01 08:15:41;;;;;;;;;;;15.00;52.40;;;;;;5080622;28;19920;-67
2023/05/01 08:18:07;;;;;;;;;;;15.00;52.40;;;;;;5080843;28;19928;-67
2023/05/01 08:20:34;;;;;;;;;;;15.00;52.30;;;;;;5100701;28;20010;-67
2023/05/01 08:22:59;;;;;;;;;;;15.00;52.30;;;;;;5081213;28;20006;-67
2023/05/01 08:25:25;;;;;;;;;;;15.00;52.30;;;;;;5084122;28;20030;-67
2023/05/01 08:27:51;;;;;;;;;;;15.00;52.30;;;;;;5081830;28;19949;-67
2023/05/01 08:30:16;;;;;;;;;;;15.00;52.20;;;;;;5097780;28;20007;-67
2023/05/01 08:32:42;;;;;;;;;;;14.90;52.10;;;;;;5079265;28;19943;-66
2023/05/01 08:35:07;;;;;;;;;;;15.00;52.20;;;;;;5080778;28;19963;-66
2023/05/01 08:37:34;;;;;;;;;;;15.00;52.20;;;;;;5083072;28;19981;-67
2023/05/01 08:39:59;;;;;;;;;;;15.00;52.20;;;;;;5080686;28;19928;-66
2023/05/01 08:42:26;;;;;;;;;;;15.00;52.10;;;;;;5101238;28;19930;-66
2023/05/01 08:44:53;;;;;;;;;;;15.00;52.00;;;;;;5113605;27;20024;-66
2023/05/01 08:47:18;;;;;;;;;;;15.00;52.10;;;;;;5080087;28;20329;-66
2023/05/01 08:49:45;;;;;;;;;;;15.00;52.00;;;;;;5116046;27;19919;-67
2023/05/01 08:52:11;;;;;;;;;;;15.00;52.00;;;;;;5102853;28;19920;-66
2023/05/01 08:54:40;;;;;;;;;;;15.00;52.00;;;;;;5100438;28;20325;-66
2023/05/01 08:57:08;;;;;;;;;;;15.00;51.90;;;;;;5099039;28;19970;-66
2023/05/01 08:59:34;;;;;;;;;;;15.00;51.90;;;;;;5093014;28;19927;-66
2023/05/01 09:02:00;;;;;;;;;;;15.00;51.90;;;;;;5081036;28;19969;-66
2023/05/01 09:04:30;;;;;;;;;;;15.10;52.00;;;;;;5082543;28;19924;-67
2023/05/01 09:06:56;;;;;;;;;;;15.00;51.80;;;;;;5098101;28;20379;-67
2023/05/01 09:09:22;;;;;;;;;;;15.10;51.80;;;;;;5099159;28;19924;-66
2023/05/01 09:11:47;;;;;;;;;;;15.10;51.80;;;;;;5116803;27;20329;-67
2023/05/01 09:14:13;;;;;;;;;;;15.10;51.70;;;;;;5083372;28;19920;-67
2023/05/01 09:16:38;;;;;;;;;;;15.10;51.70;;;;;;5098257;28;19931;-67
2023/05/01 09:19:04;;;;;;;;;;;15.10;51.70;;;;;;5097456;28;19973;-67
2023/05/01 09:21:30;;;;;;;;;;;15.10;51.70;;;;;;5101766;28;19921;-67
2023/05/01 09:23:56;;;;;;;;;;;15.10;51.70;;;;;;5097009;28;19927;-66
2023/05/01 09:26:21;;;;;;;;;;;15.10;51.70;;;;;;5082843;28;19920;-66
2023/05/01 09:28:47;;;;;;;;;;;15.10;51.90;;;;;;5098356;28;20397;-66
2023/05/01 09:34:02;;;;;;;;;;;15.30;54.20;;;;;;5075167;28;19917;-67
2023/05/01 09:36:31;;;;;;;;;;;15.40;54.20;;;;;;5071203;28;19928;-66
2023/05/01 09:38:57;;;;;;;;;;;15.50;54.40;;;;;;5074415;28;19921;-66
2023/05/01 09:41:23;;;;;;;;;;;15.60;54.40;;;;;;5074883;28;19924;-66
2023/05/01 09:43:50;;;;;;;;;;;15.70;54.40;;;;;;5073834;28;19967;-67
2023/05/01 09:46:15;;;;;;;;;;;15.70;54.40;;;;;;5072433;28;20027;-67
2023/05/01 09:48:50;;;;;;;;;;;15.70;54.30;;;;;;5072789;28;20394;-68
2023/05/01 09:51:20;;;;;;;;;;;15.70;54.20;;;;;;5074998;28;20395;-67
2023/05/01 09:53:45;;;;;;;;;;;15.70;54.00;;;;;;5078082;28;19928;-67
2023/05/01 09:56:11;;;;;;;;;;;15.70;54.00;;;;;;5076869;28;20371;-67
2023/05/01 09:58:36;;;;;;;;;;;15.60;53.90;;;;;;5074834;28;20468;-68
2023/05/01 10:01:02;;;;;;;;;;;15.60;53.70;;;;;;5073915;28;20006;-67
2023/05/01 10:03:27;;;;;;;;;;;15.60;53.70;;;;;;5072361;28;19925;-67
2023/05/01 10:05:55;;;;;;;;;;;15.60;53.70;;;;;;5088843;28;20007;-68
2023/05/01 10:08:21;;;;;;;;;;;15.50;53.60;;;;;;5074913;28;19943;-67
2023/05/01 10:10:58;;;;;;;;;;;15.50;53.60;;;;;;5073490;28;19924;-67
2023/05/01 10:13:24;;;;;;;;;;;15.50;53.60;;;;;;5076289;28;19947;-67
2023/05/01 10:15:49;;;;;;;;;;;15.50;53.50;;;;;;5079132;28;19920;-67
2023/05/01 10:18:15;;;;;;;;;;;15.50;53.40;;;;;;5072895;28;19927;-67
2023/05/01 10:20:41;;;;;;;;;;;15.50;53.40;;;;;;5075125;28;20034;-67
2023/05/01 10:23:07;;;;;;;;;;;15.40;53.40;;;;;;5091878;28;19924;-67
2023/05/01 10:25:33;;;;;;;;;;;15.50;53.40;;;;;;5077398;28;19928;-67
2023/05/01 10:28:01;;;;;;;;;;;15.40;53.30;;;;;;5074161;28;19925;-67
2023/05/01 10:30:27;;;;;;;;;;;15.40;53.30;;;;;;5072805;28;20007;-67
2023/05/01 10:32:53;;;;;;;;;;;15.40;53.20;;;;;;5074705;28;20015;-67
2023/05/01 10:35:20;;;;;;;;;;;15.40;53.20;;;;;;5074640;28;20291;-67
2023/05/01 10:37:47;;;;;;;;;;;15.40;53.20;;;;;;5074166;28;19921;-67
2023/05/01 10:40:32;;;;;;;;;;;15.40;53.20;;;;;;5072142;28;19950;-67
2023/05/01 10:43:18;;;;;;;;;;;15.40;53.10;;;;;;5095823;28;19931;-67
2023/05/01 10:45:44;;;;;;;;;;;15.40;53.10;;;;;;5061325;28;20330;-67
2023/05/01 10:48:10;;;;;;;;;;;15.40;53.10;;;;;;5061306;28;19924;-67
2023/05/01 10:50:55;;;;;;;;;;;15.40;53.00;;;;;;5058505;28;19920;-67
2023/05/01 10:53:22;;;;;;;;;;;15.40;53.00;;;;;;5061462;28;19928;-67
2023/05/01 10:55:48;;;;;;;;;;;15.40;53.00;;;;;;5068830;28;20007;-67
2023/05/01 10:58:33;;;;;;;;;;;15.40;53.00;;;;;;5058982;28;20016;-67
2023/05/01 11:01:19;;;;;;;;;;;15.40;53.00;;;;;;5057988;28;20011;-67
2023/05/01 11:03:44;;;;;;;;;;;15.40;53.00;;;;;;5070654;28;20027;-67
2023/05/01 11:06:10;;;;;;;;;;;15.40;52.90;;;;;;5058320;28;20027;-67
2023/05/01 11:08:37;;;;;;;;;;;15.40;52.90;;;;;;5058099;28;19970;-67
2023/05/01 11:11:22;;;;;;;;;;;15.40;52.90;;;;;;5079806;28;20233;-67
2023/05/01 11:14:03;;;;;;;;;;;15.40;53.00;;;;;;5060171;28;19929;-67
2023/05/01 11:21:59;;;;;;;;;;;15.40;52.90;;;;;;5083813;27;19939;-67
2023/05/01 11:24:32;;;;;;;;;;;15.40;52.90;;;;;;5098182;28;19920;-67
2023/05/01 11:26:59;;;;;;;;;;;15.40;52.90;;;;;;5112763;28;19925;-67
2023/05/01 11:29:29;;;;;;;;;;;15.40;52.90;;;;;;5113334;28;19925;-67
2023/05/01 11:31:54;;;;;;;;;;;15.40;52.90;;;;;;5079888;28;19928;-67
2023/05/01 11:34:20;;;;;;;;;;;15.40;52.90;;;;;;5083541;28;19973;-67
2023/05/01 11:36:48;;;;;;;;;;;15.40;52.90;;;;;;5079285;28;20277;-67
2023/05/01 11:39:14;;;;;;;;;;;15.40;52.80;;;;;;5081633;28;20411;-67
2023/05/01 11:41:40;;;;;;;;;;;15.40;52.90;;;;;;5081836;28;20015;-67
2023/05/01 11:44:05;;;;;;;;;;;15.40;52.90;;;;;;5114954;28;20447;-67
2023/05/01 11:46:31;;;;;;;;;;;15.40;52.80;;;;;;5111030;28;19969;-67
2023/05/01 11:48:58;;;;;;;;;;;15.40;52.80;;;;;;5068432;28;19921;-67
2023/05/01 11:51:24;;;;;;;;;;;15.40;52.80;;;;;;5111569;28;20383;-67
2023/05/01 11:53:58;;;;;;;;;;;15.40;52.80;;;;;;5079146;28;19921;-67
2023/05/01 11:56:24;;;;;;;;;;;15.40;52.80;;;;;;5072700;28;20622;-67
2023/05/01 11:58:50;;;;;;;;;;;15.40;52.80;;;;;;5082917;28;20007;-67
2023/05/01 12:01:16;;;;;;;;;;;15.40;52.80;;;;;;5081437;28;19950;-67
2023/05/01 12:03:42;;;;;;;;;;;15.40;52.80;;;;;;5081210;28;19920;-67
2023/05/01 12:06:09;;;;;;;;;;;15.40;52.80;;;;;;5080404;28;20023;-67
2023/05/01 12:08:35;;;;;;;;;;;15.40;52.80;;;;;;5078972;28;19920;-67
2023/05/01 12:11:00;;;;;;;;;;;15.40;52.80;;;;;;5080554;28;19931;-67
2023/05/01 12:13:26;;;;;;;;;;;15.40;52.80;;;;;;5079912;28;19921;-66
2023/05/01 12:15:52;;;;;;;;;;;15.40;52.80;;;;;;5081069;28;20015;-67
2023/05/01 12:18:20;;;;;;;;;;;15.40;52.80;;;;;;5080931;28;19920;-67
2023/05/01 12:20:47;;;;;;;;;;;15.40;52.80;;;;;;5110912;28;19928;-67
2023/05/01 12:23:14;;;;;;;;;;;15.40;52.80;;;;;;5079798;28;20041;-67
2023/05/01 12:25:41;;;;;;;;;;;15.50;53.60;;;;;;5111452;28;20372;-67
2023/05/01 12:28:12;;;;;;;;;;;15.40;52.80;;;;;;5081863;28;19927;-66
2023/05/01 12:30:37;;;;;;;;;;;15.40;52.80;;;;;;5066277;28;19920;-67
2023/05/01 12:33:19;;;;;;;;;;;15.40;52.90;;;;;;5067255;28;20031;-67
2023/05/01 12:35:46;;;;;;;;;;;15.50;52.90;;;;;;5096795;28;19920;-67
2023/05/01 12:38:14;;;;;;;;;;;15.50;52.90;;;;;;5068921;28;20400;-67
2023/05/01 12:40:48;;;;;;;;;;;15.50;52.90;;;;;;5066328;28;19974;-67
2023/05/01 12:43:15;;;;;;;;;;;15.50;52.90;;;;;;5049269;28;19927;-67
2023/05/01 12:45:40;;;;;;;;;;;15.50;52.90;;;;;;5097866;28;19920;-67
2023/05/01 12:48:10;;;;;;;;;;;15.50;52.90;;;;;;5099059;28;19928;-67
2023/05/01 12:50:36;;;;;;;;;;;15.50;52.90;;;;;;5063848;28;20414;-67
2023/05/01 12:53:02;;;;;;;;;;;15.50;52.90;;;;;;5066401;28;19970;-67
2023/05/01 12:55:27;;;;;;;;;;;15.50;52.90;;;;;;5064196;28;20372;-67
2023/05/01 12:57:53;;;;;;;;;;;15.50;52.90;;;;;;5065105;28;20007;-67
2023/05/01 13:00:19;;;;;;;;;;;15.50;52.90;;;;;;5066280;28;20384;-67
2023/05/01 13:02:45;;;;;;;;;;;15.50;52.90;;;;;;5067079;28;19924;-67
2023/05/01 13:05:10;;;;;;;;;;;15.50;52.90;;;;;;5064632;28;19930;-67
2023/05/01 13:07:38;;;;;;;;;;;15.50;52.90;;;;;;5066308;28;19921;-67
2023/05/01 13:10:05;;;;;;;;;;;15.50;52.90;;;;;;5097302;28;19928;-67
2023/05/01 13:12:31;;;;;;;;;;;15.50;52.90;;;;;;5065952;28;20016;-67
2023/05/01 13:14:57;;;;;;;;;;;15.50;52.90;;;;;;5062950;28;20596;-67
2023/05/01 13:17:26;;;;;;;;;;;15.50;52.90;;;;;;5054937;28;19959;-67
2023/05/01 13:19:53;;;;;;;;;;;15.50;52.90;;;;;;5063571;28;19928;-67
2023/05/01 13:22:27;;;;;;;;;;;15.50;52.90;;;;;;5066536;28;20295;-67
2023/05/01 13:24:53;;;;;;;;;;;15.60;53.00;;;;;;5065819;28;19921;-67
2023/05/01 13:27:20;;;;;;;;;;;15.60;53.00;;;;;;5063549;28;20342;-67
2023/05/01 13:29:51;;;;;;;;;;;15.60;53.00;;;;;;5100227;28;20299;-67
2023/05/01 13:32:17;;;;;;;;;;;15.60;53.00;;;;;;5096799;28;20016;-67
2023/05/01 13:34:42;;;;;;;;;;;15.60;53.00;;;;;;5063719;28;20015;-67
2023/05/01 13:37:12;;;;;;;;;;;15.60;53.00;;;;;;5065047;28;20181;-67
2023/05/01 13:39:40;;;;;;;;;;;15.60;53.00;;;;;;5061656;28;19921;-67
2023/05/01 13:42:06;;;;;;;;;;;15.60;53.00;;;;;;5096894;28;20482;-67
2023/05/01 13:44:31;;;;;;;;;;;15.60;53.00;;;;;;5062635;28;19967;-67
2023/05/01 13:46:57;;;;;;;;;;;15.60;53.00;;;;;;5099141;28;19956;-67
2023/05/01 13:49:23;;;;;;;;;;;15.60;53.00;;;;;;5054412;28;19928;-67
2023/05/01 13:51:48;;;;;;;;;;;15.70;53.00;;;;;;5060470;28;19952;-67
2023/05/01 13:54:15;;;;;;;;;;;15.60;53.00;;;;;;5068570;28;19943;-67
2023/05/01 13:56:41;;;;;;;;;;;15.60;53.00;;;;;;5062566;28;19924;-67
2023/05/01 13:59:07;;;;;;;;;;;15.60;53.00;;;;;;5064607;28;19931;-67
2023/05/01 14:01:44;;;;;;;;;;;15.60;53.10;;;;;;5065225;28;19930;-67
2023/05/01 14:04:13;;;;;;;;;;;15.70;53.10;;;;;;5065914;28;19943;-67
2023/05/01 14:06:42;;;;;;;;;;;15.70;53.10;;;;;;5098581;28;19971;-67
2023/05/01 14:09:08;;;;;;;;;;;15.60;53.10;;;;;;5063311;28;19924;-67
2023/05/01 14:11:40;;;;;;;;;;;15.70;53.20;;;;;;5063601;28;20433;-67
2023/05/01 14:14:06;;;;;;;;;;;15.70;53.20;;;;;;5060889;28;20273;-67
2023/05/01 14:16:31;;;;;;;;;;;15.70;53.20;;;;;;5064008;28;19924;-67
2023/05/01 14:18:57;;;;;;;;;;;15.70;53.20;;;;;;5050279;28;19920;-67
2023/05/01 14:21:26;;;;;;;;;;;15.70;53.20;;;;;;5063242;28;20443;-67
2023/05/01 14:23:51;;;;;;;;;;;15.70;53.20;;;;;;5063056;28;19924;-67
2023/05/01 14:26:18;;;;;;;;;;;15.70;53.20;;;;;;5062245;28;19921;-67
2023/05/01 14:28:45;;;;;;;;;;;15.70;53.20;;;;;;5062879;28;19931;-67
2023/05/01 14:31:15;;;;;;;;;;;15.70;53.20;;;;;;5062642;28;19924;-67